createdAt,value
2022-10-07T00:00:35.874Z,0
2022-10-07T00:01:42.062Z,0
2022-10-07T00:02:48.198Z,0
2022-10-07T00:03:54.371Z,0
2022-10-07T00:05:00.541Z,0
2022-10-07T00:06:06.707Z,0
2022-10-07T00:07:12.890Z,0
2022-10-07T00:08:18.065Z,0
2022-10-07T00:09:24.243Z,0
2022-10-07T00:10:30.413Z,0
2022-10-07T00:11:36.622Z,0
2022-10-07T00:12:42.751Z,0
2022-10-07T00:13:48.925Z,0
2022-10-07T00:14:55.093Z,0
2022-10-07T00:16:01.242Z,0
2022-10-07T00:17:07.434Z,0
2022-10-07T00:18:13.585Z,0
2022-10-07T00:19:19.772Z,0
2022-10-07T00:20:25.942Z,0
2022-10-07T00:21:32.104Z,0
2022-10-07T00:22:37.294Z,0
2022-10-07T00:23:43.486Z,0
2022-10-07T00:24:49.629Z,0
2022-10-07T00:25:55.796Z,0
2022-10-07T00:27:01.032Z,0
2022-10-07T00:28:07.169Z,0
2022-10-07T00:29:13.321Z,0
2022-10-07T00:30:19.508Z,0
2022-10-07T00:31:25.661Z,0
2022-10-07T00:32:31.857Z,0
2022-10-07T00:33:38.011Z,0
2022-10-07T00:34:44.172Z,0
2022-10-07T00:35:50.349Z,0
2022-10-07T00:36:56.507Z,0
2022-10-07T00:38:02.689Z,0
2022-10-07T00:39:08.957Z,0
2022-10-07T00:40:15.031Z,0
2022-10-07T00:41:20.203Z,0
2022-10-07T00:42:26.376Z,0
2022-10-07T00:43:32.552Z,0
2022-10-07T00:44:38.722Z,0
2022-10-07T00:45:44.883Z,0
2022-10-07T00:46:51.047Z,0
2022-10-07T00:47:57.235Z,0
2022-10-07T00:49:03.402Z,0
2022-10-07T00:50:09.571Z,0
2022-10-07T00:51:15.821Z,0
2022-10-07T00:52:21.911Z,0
2022-10-07T00:53:28.077Z,0
2022-10-07T00:54:34.241Z,0
2022-10-07T00:55:39.423Z,0
2022-10-07T00:56:45.612Z,0
2022-10-07T00:57:51.773Z,0
2022-10-07T01:00:04.113Z,0
2022-10-07T01:01:10.271Z,0
2022-10-07T01:02:16.492Z,0
2022-10-07T01:03:22.616Z,0
2022-10-07T01:04:28.784Z,0
2022-10-07T01:05:34.985Z,0
2022-10-07T01:06:41.131Z,0
2022-10-07T01:07:47.301Z,0
2022-10-07T01:08:53.528Z,0
2022-10-07T01:09:58.759Z,0
2022-10-07T01:11:04.823Z,0
2022-10-07T01:12:10.990Z,0
2022-10-07T01:13:17.159Z,0
2022-10-07T01:14:23.335Z,0
2022-10-07T01:15:29.492Z,0
2022-10-07T01:16:35.664Z,0
2022-10-07T01:17:41.851Z,0
2022-10-07T01:18:47.999Z,0
2022-10-07T01:19:54.184Z,0
2022-10-07T01:21:00.347Z,0
2022-10-07T01:22:06.504Z,0
2022-10-07T01:23:12.699Z,0
2022-10-07T01:24:17.866Z,0
2022-10-07T01:25:24.035Z,0
2022-10-07T01:26:30.212Z,0
2022-10-07T01:27:36.390Z,0
2022-10-07T01:28:42.545Z,0
2022-10-07T01:29:48.733Z,0
2022-10-07T01:30:54.879Z,0
2022-10-07T01:32:01.061Z,0
2022-10-07T01:33:07.234Z,0
2022-10-07T01:34:13.387Z,0
2022-10-07T01:35:19.573Z,0
2022-10-07T01:36:25.746Z,0
2022-10-07T01:37:31.921Z,0
2022-10-07T01:38:37.101Z,0
2022-10-07T01:39:43.290Z,0
2022-10-07T01:40:49.432Z,0
2022-10-07T01:41:55.598Z,0
2022-10-07T01:43:01.775Z,0
2022-10-07T01:44:07.936Z,0
2022-10-07T01:45:14.180Z,0
2022-10-07T01:46:20.277Z,0
2022-10-07T01:47:26.462Z,0
2022-10-07T01:48:32.645Z,0
2022-10-07T01:49:38.794Z,0
2022-10-07T01:50:44.970Z,0
2022-10-07T01:51:51.134Z,0
2022-10-07T01:52:56.312Z,0
2022-10-07T01:54:02.511Z,0
2022-10-07T01:55:08.648Z,0
2022-10-07T01:56:14.808Z,0
2022-10-07T01:57:21.009Z,0
2022-10-07T01:58:27.152Z,0
2022-10-07T01:59:33.338Z,0
2022-10-07T02:00:39.501Z,0
2022-10-07T02:01:45.669Z,0
2022-10-07T02:02:51.849Z,0
2022-10-07T02:03:58.005Z,0
2022-10-07T02:05:04.181Z,0
2022-10-07T02:06:10.338Z,0
2022-10-07T02:07:15.533Z,0
2022-10-07T02:08:21.706Z,0
2022-10-07T02:09:27.949Z,0
2022-10-07T02:10:34.039Z,0
2022-10-07T02:11:40.204Z,0
2022-10-07T02:12:46.385Z,0
2022-10-07T02:13:52.551Z,0
2022-10-07T02:14:58.707Z,0
2022-10-07T02:16:04.911Z,0
2022-10-07T02:17:11.057Z,0
2022-10-07T02:18:17.225Z,0
2022-10-07T02:19:23.392Z,0
2022-10-07T02:20:29.581Z,0
2022-10-07T02:21:34.751Z,0
2022-10-07T02:22:40.961Z,0
2022-10-07T02:23:47.079Z,0
2022-10-07T02:24:53.255Z,0
2022-10-07T02:25:59.433Z,0
2022-10-07T02:27:05.588Z,0
2022-10-07T02:28:11.758Z,0
2022-10-07T02:29:17.944Z,0
2022-10-07T02:30:24.105Z,0
2022-10-07T02:31:30.294Z,0
2022-10-07T02:32:36.448Z,0
2022-10-07T02:33:42.619Z,0
2022-10-07T02:34:48.790Z,0
2022-10-07T02:35:53.973Z,0
2022-10-07T02:37:00.145Z,0
2022-10-07T02:38:06.301Z,0
2022-10-07T02:39:12.490Z,0
2022-10-07T02:40:18.652Z,0
2022-10-07T02:41:24.810Z,0
2022-10-07T02:43:37.186Z,0
2022-10-07T02:44:43.325Z,0
2022-10-07T02:45:49.503Z,0
2022-10-07T02:46:55.664Z,0
2022-10-07T02:48:01.968Z,0
2022-10-07T02:49:08.024Z,0
2022-10-07T02:50:13.180Z,0
2022-10-07T02:51:19.381Z,0
2022-10-07T02:52:25.532Z,0
2022-10-07T02:53:31.718Z,0
2022-10-07T02:54:37.877Z,0
2022-10-07T02:55:44.026Z,0
2022-10-07T02:56:50.209Z,0
2022-10-07T02:57:56.469Z,0
2022-10-07T02:59:02.545Z,0
2022-10-07T03:00:08.724Z,0
2022-10-07T03:01:14.876Z,0
2022-10-07T03:02:21.044Z,0
2022-10-07T03:03:27.218Z,0
2022-10-07T03:04:32.409Z,0
2022-10-07T03:05:38.594Z,0
2022-10-07T03:06:44.737Z,0
2022-10-07T03:07:50.994Z,0
2022-10-07T03:08:57.083Z,0
2022-10-07T03:10:03.274Z,0
2022-10-07T03:11:09.415Z,0
2022-10-07T03:12:15.604Z,0
2022-10-07T03:13:21.769Z,0
2022-10-07T03:14:27.942Z,0
2022-10-07T03:15:34.114Z,0
2022-10-07T03:16:40.278Z,0
2022-10-07T03:17:46.532Z,0
2022-10-07T03:18:51.625Z,0
2022-10-07T03:19:57.798Z,0
2022-10-07T03:21:03.976Z,0
2022-10-07T03:22:10.134Z,0
2022-10-07T03:23:16.313Z,0
2022-10-07T03:24:22.516Z,0
2022-10-07T03:25:28.653Z,0
2022-10-07T03:26:34.812Z,0
2022-10-07T03:27:40.991Z,0
2022-10-07T03:28:47.154Z,0
2022-10-07T03:29:53.332Z,0
2022-10-07T03:30:59.491Z,0
2022-10-07T03:32:05.659Z,0
2022-10-07T03:33:10.856Z,0
2022-10-07T03:34:17.029Z,0
2022-10-07T03:35:23.201Z,0
2022-10-07T03:36:29.362Z,0
2022-10-07T03:37:35.622Z,0
2022-10-07T03:38:41.729Z,0
2022-10-07T03:39:47.856Z,0
2022-10-07T03:40:54.026Z,0
2022-10-07T03:42:00.209Z,0
2022-10-07T03:43:06.385Z,0
2022-10-07T03:44:12.551Z,0
2022-10-07T03:45:18.712Z,0
2022-10-07T03:46:24.879Z,0
2022-10-07T03:47:30.075Z,0
2022-10-07T03:48:36.239Z,0
2022-10-07T03:49:42.407Z,0
2022-10-07T03:50:48.570Z,0
2022-10-07T03:51:54.760Z,0
2022-10-07T03:53:00.908Z,0
2022-10-07T03:54:07.083Z,0
2022-10-07T03:55:13.258Z,0
2022-10-07T03:56:19.437Z,0
2022-10-07T03:57:25.591Z,0
2022-10-07T03:58:31.758Z,0
2022-10-07T03:59:37.935Z,0
2022-10-07T04:00:44.111Z,0
2022-10-07T04:01:49.291Z,0
2022-10-07T04:02:55.472Z,0
2022-10-07T04:04:01.621Z,0
2022-10-07T04:05:07.790Z,0
2022-10-07T04:06:13.954Z,0
2022-10-07T04:07:20.141Z,0
2022-10-07T04:08:25.333Z,0
2022-10-07T04:09:31.506Z,0
2022-10-07T04:10:37.656Z,0
2022-10-07T04:11:43.883Z,0
2022-10-07T04:12:49.996Z,0
2022-10-07T04:13:56.168Z,0
2022-10-07T04:15:02.363Z,0
2022-10-07T04:16:08.532Z,0
2022-10-07T04:17:14.683Z,0
2022-10-07T04:18:20.855Z,0
2022-10-07T04:19:27.009Z,0
2022-10-07T04:20:33.185Z,0
2022-10-07T04:21:39.413Z,0
2022-10-07T04:22:44.544Z,0
2022-10-07T04:23:50.708Z,0
2022-10-07T04:24:56.880Z,0
2022-10-07T04:26:03.095Z,0
2022-10-07T04:27:09.242Z,0
2022-10-07T04:28:15.384Z,0
2022-10-07T04:29:21.561Z,0
2022-10-07T04:30:27.739Z,0
2022-10-07T04:31:33.906Z,0
2022-10-07T04:32:40.118Z,0
2022-10-07T04:33:46.238Z,0
2022-10-07T04:34:52.408Z,0
2022-10-07T04:35:58.584Z,0
2022-10-07T04:37:03.754Z,0
2022-10-07T04:38:09.932Z,0
2022-10-07T04:39:16.122Z,0
2022-10-07T04:40:22.336Z,0
2022-10-07T04:41:28.448Z,0
2022-10-07T04:42:34.612Z,0
2022-10-07T04:43:40.785Z,0
2022-10-07T04:44:46.943Z,0
2022-10-07T04:45:53.119Z,0
2022-10-07T04:46:59.293Z,0
2022-10-07T04:48:05.458Z,0
2022-10-07T04:49:11.637Z,0
2022-10-07T04:50:17.793Z,0
2022-10-07T04:51:23.005Z,0
2022-10-07T04:52:29.145Z,0
2022-10-07T04:53:35.320Z,0
2022-10-07T04:54:41.499Z,0
2022-10-07T04:55:47.665Z,0
2022-10-07T04:56:53.832Z,0
2022-10-07T04:58:00.016Z,0
2022-10-07T04:59:06.177Z,0
2022-10-07T05:00:12.340Z,0
2022-10-07T05:01:18.513Z,0
2022-10-07T05:02:24.689Z,0
2022-10-07T05:03:30.850Z,0
2022-10-07T05:04:37.032Z,0
2022-10-07T05:05:42.208Z,0
2022-10-07T05:06:48.373Z,0
2022-10-07T05:07:54.553Z,0
2022-10-07T05:09:00.714Z,0
2022-10-07T05:11:13.060Z,0
2022-10-07T05:12:19.228Z,0
2022-10-07T05:13:25.405Z,0
2022-10-07T05:14:31.587Z,0
2022-10-07T05:15:37.719Z,0
2022-10-07T05:16:43.916Z,0
2022-10-07T05:17:50.071Z,0
2022-10-07T05:18:56.246Z,0
2022-10-07T05:20:01.429Z,0
2022-10-07T05:21:07.597Z,0
2022-10-07T05:22:13.757Z,0
2022-10-07T05:23:19.975Z,0
2022-10-07T05:24:26.116Z,0
2022-10-07T05:25:32.295Z,0
2022-10-07T05:26:38.455Z,0
2022-10-07T05:27:44.620Z,0
2022-10-07T05:28:50.772Z,0
2022-10-07T05:29:56.989Z,0
2022-10-07T05:31:03.176Z,0
2022-10-07T05:32:09.288Z,0
2022-10-07T05:33:15.477Z,5
2022-10-07T05:34:20.644Z,5
2022-10-07T05:35:26.811Z,5
2022-10-07T05:36:32.978Z,5
2022-10-07T05:37:39.171Z,5
2022-10-07T05:38:45.319Z,5
2022-10-07T05:39:51.489Z,5
2022-10-07T05:40:57.664Z,11
2022-10-07T05:42:03.853Z,11
2022-10-07T05:43:10.005Z,11
2022-10-07T05:44:16.187Z,11
2022-10-07T05:45:22.427Z,11
2022-10-07T05:46:28.510Z,16
2022-10-07T05:47:34.680Z,16
2022-10-07T05:48:39.865Z,16
2022-10-07T05:49:46.040Z,16
2022-10-07T05:50:52.210Z,16
2022-10-07T05:51:58.383Z,16
2022-10-07T05:53:04.546Z,22
2022-10-07T05:54:10.721Z,22
2022-10-07T05:55:16.895Z,22
2022-10-07T05:56:23.137Z,22
2022-10-07T05:57:29.237Z,22
2022-10-07T05:58:35.394Z,28
2022-10-07T05:59:41.556Z,28
2022-10-07T06:00:47.743Z,28
2022-10-07T06:01:53.907Z,28
2022-10-07T06:02:59.078Z,33
2022-10-07T06:04:05.271Z,33
2022-10-07T06:05:11.417Z,33
2022-10-07T06:06:17.596Z,33
2022-10-07T06:07:23.762Z,39
2022-10-07T06:08:29.944Z,39
2022-10-07T06:09:36.104Z,39
2022-10-07T06:10:42.269Z,45
2022-10-07T06:11:48.504Z,45
2022-10-07T06:12:54.638Z,45
2022-10-07T06:14:00.782Z,45
2022-10-07T06:15:06.969Z,50
2022-10-07T06:16:13.127Z,50
2022-10-07T06:17:18.308Z,50
2022-10-07T06:18:24.482Z,56
2022-10-07T06:19:30.642Z,56
2022-10-07T06:20:36.829Z,61
2022-10-07T06:21:42.984Z,61
2022-10-07T06:22:49.284Z,61
2022-10-07T06:23:55.323Z,67
2022-10-07T06:25:01.490Z,67
2022-10-07T06:26:07.664Z,67
2022-10-07T06:27:13.848Z,73
2022-10-07T06:28:20.012Z,73
2022-10-07T06:29:26.240Z,73
2022-10-07T06:30:32.352Z,78
2022-10-07T06:31:37.531Z,78
2022-10-07T06:32:43.749Z,78
2022-10-07T06:33:49.860Z,84
2022-10-07T06:34:56.041Z,84
2022-10-07T06:36:02.215Z,84
2022-10-07T06:37:08.388Z,84
2022-10-07T06:38:14.553Z,84
2022-10-07T06:39:20.720Z,90
2022-10-07T06:40:26.887Z,90
2022-10-07T06:41:33.045Z,90
2022-10-07T06:42:39.251Z,95
2022-10-07T06:43:45.392Z,95
2022-10-07T06:44:51.570Z,101
2022-10-07T06:45:56.759Z,101
2022-10-07T06:47:02.909Z,101
2022-10-07T06:48:09.097Z,101
2022-10-07T06:49:15.262Z,106
2022-10-07T06:50:21.427Z,106
2022-10-07T06:51:27.607Z,106
2022-10-07T06:52:33.783Z,112
2022-10-07T06:53:39.960Z,112
2022-10-07T06:54:46.112Z,118
2022-10-07T06:55:52.275Z,118
2022-10-07T06:56:58.439Z,118
2022-10-07T06:58:04.623Z,118
2022-10-07T06:59:10.793Z,118
2022-10-07T07:00:16.002Z,118
2022-10-07T07:01:22.148Z,123
2022-10-07T07:02:28.405Z,123
2022-10-07T07:03:34.519Z,129
2022-10-07T07:04:40.730Z,135
2022-10-07T07:05:46.842Z,135
2022-10-07T07:06:52.991Z,140
2022-10-07T07:07:59.185Z,146
2022-10-07T07:09:05.340Z,146
2022-10-07T07:10:11.488Z,146
2022-10-07T07:11:17.667Z,151
2022-10-07T07:12:23.960Z,151
2022-10-07T07:13:30.008Z,157
2022-10-07T07:14:35.192Z,157
2022-10-07T07:15:41.387Z,163
2022-10-07T07:16:47.592Z,157
2022-10-07T07:17:53.694Z,163
2022-10-07T07:18:59.862Z,168
2022-10-07T07:20:06.040Z,168
2022-10-07T07:21:12.263Z,168
2022-10-07T07:22:18.492Z,168
2022-10-07T07:23:24.539Z,174
2022-10-07T07:24:30.794Z,174
2022-10-07T07:25:36.891Z,180
2022-10-07T07:26:43.066Z,185
2022-10-07T07:27:49.217Z,270
2022-10-07T07:28:54.415Z,371
2022-10-07T07:30:00.722Z,376
2022-10-07T07:31:06.752Z,320
2022-10-07T07:32:12.936Z,298
2022-10-07T07:33:19.089Z,225
2022-10-07T07:34:25.263Z,202
2022-10-07T07:35:31.493Z,191
2022-10-07T07:36:37.586Z,202
2022-10-07T07:37:43.783Z,208
2022-10-07T07:38:49.936Z,208
2022-10-07T07:39:56.112Z,202
2022-10-07T07:41:02.278Z,208
2022-10-07T07:42:08.444Z,208
2022-10-07T07:43:13.630Z,208
2022-10-07T07:44:19.828Z,202
2022-10-07T07:45:25.966Z,219
2022-10-07T07:46:32.167Z,225
2022-10-07T07:47:38.477Z,230
2022-10-07T07:48:44.513Z,230
2022-10-07T07:49:49.717Z,241
2022-10-07T07:50:55.832Z,247
2022-10-07T07:52:02.018Z,253
2022-10-07T07:53:08.171Z,286
2022-10-07T07:54:14.336Z,303
2022-10-07T07:55:20.515Z,275
2022-10-07T07:56:26.680Z,270
2022-10-07T07:57:32.852Z,275
2022-10-07T07:59:47.803Z,275
2022-10-07T08:00:51.361Z,275
2022-10-07T08:01:57.531Z,270
2022-10-07T08:03:03.704Z,258
2022-10-07T08:04:08.920Z,264
2022-10-07T08:05:15.081Z,258
2022-10-07T08:06:21.226Z,264
2022-10-07T08:07:27.396Z,264
2022-10-07T08:08:33.559Z,247
2022-10-07T08:09:39.746Z,253
2022-10-07T08:10:45.909Z,264
2022-10-07T08:11:52.066Z,253
2022-10-07T08:12:58.259Z,264
2022-10-07T08:14:04.408Z,264
2022-10-07T08:15:10.615Z,270
2022-10-07T08:16:16.749Z,270
2022-10-07T08:17:22.931Z,270
2022-10-07T08:18:28.088Z,264
2022-10-07T08:19:34.303Z,270
2022-10-07T08:20:40.429Z,270
2022-10-07T08:21:46.673Z,275
2022-10-07T08:22:52.779Z,298
2022-10-07T08:23:58.935Z,320
2022-10-07T08:25:05.116Z,315
2022-10-07T08:26:11.299Z,309
2022-10-07T08:27:17.443Z,331
2022-10-07T08:28:23.620Z,298
2022-10-07T08:29:29.804Z,309
2022-10-07T08:30:35.999Z,298
2022-10-07T08:31:42.129Z,298
2022-10-07T08:32:47.383Z,298
2022-10-07T08:33:53.484Z,286
2022-10-07T08:34:59.651Z,275
2022-10-07T08:36:05.818Z,270
2022-10-07T08:37:12.012Z,264
2022-10-07T08:38:18.211Z,270
2022-10-07T08:39:24.335Z,270
2022-10-07T08:40:30.498Z,270
2022-10-07T08:41:36.672Z,270
2022-10-07T08:42:42.840Z,292
2022-10-07T08:43:49.009Z,331
2022-10-07T08:44:55.190Z,376
2022-10-07T08:46:01.362Z,326
2022-10-07T08:47:06.531Z,343
2022-10-07T08:48:12.794Z,348
2022-10-07T08:49:18.894Z,371
2022-10-07T08:50:25.152Z,371
2022-10-07T08:51:31.208Z,337
2022-10-07T08:52:37.387Z,371
2022-10-07T08:53:43.549Z,303
2022-10-07T08:54:49.733Z,292
2022-10-07T08:55:55.988Z,298
2022-10-07T08:57:02.161Z,309
2022-10-07T08:58:08.236Z,303
2022-10-07T08:59:14.395Z,455
2022-10-07T09:00:20.581Z,433
2022-10-07T09:01:25.756Z,686
2022-10-07T09:02:31.940Z,770
2022-10-07T09:03:38.120Z,871
2022-10-07T09:04:44.256Z,365
2022-10-07T09:05:50.475Z,298
2022-10-07T09:06:56.601Z,410
2022-10-07T09:08:02.761Z,928
2022-10-07T09:09:08.926Z,832
2022-10-07T09:10:15.115Z,815
2022-10-07T09:11:21.318Z,781
2022-10-07T09:12:27.481Z,748
2022-10-07T09:13:33.614Z,590
2022-10-07T09:14:39.803Z,686
2022-10-07T09:15:44.970Z,725
2022-10-07T09:16:51.132Z,725
2022-10-07T09:17:57.364Z,714
2022-10-07T09:19:03.479Z,450
2022-10-07T09:20:09.656Z,382
2022-10-07T09:21:15.810Z,506
2022-10-07T09:22:21.988Z,691
2022-10-07T09:23:28.185Z,675
2022-10-07T09:24:34.365Z,691
2022-10-07T09:25:40.516Z,697
2022-10-07T09:26:46.667Z,691
2022-10-07T09:27:52.838Z,714
2022-10-07T09:28:59.031Z,669
2022-10-07T09:30:04.195Z,641
2022-10-07T09:31:10.350Z,658
2022-10-07T09:32:16.529Z,675
2022-10-07T09:33:22.699Z,675
2022-10-07T09:34:28.895Z,669
2022-10-07T09:35:35.028Z,618
2022-10-07T09:36:41.238Z,635
2022-10-07T09:37:47.400Z,663
2022-10-07T09:38:53.561Z,309
2022-10-07T09:39:59.723Z,596
2022-10-07T09:41:05.876Z,641
2022-10-07T09:42:12.063Z,675
2022-10-07T09:43:18.211Z,708
2022-10-07T09:44:24.387Z,697
2022-10-07T09:45:29.564Z,697
2022-10-07T09:46:35.735Z,714
2022-10-07T09:47:41.991Z,765
2022-10-07T09:48:48.077Z,793
2022-10-07T09:49:54.255Z,759
2022-10-07T09:51:00.415Z,748
2022-10-07T09:52:06.727Z,731
2022-10-07T09:53:12.757Z,742
2022-10-07T09:54:18.962Z,787
2022-10-07T09:55:25.101Z,866
2022-10-07T09:56:31.267Z,933
2022-10-07T09:57:37.434Z,900
2022-10-07T09:58:43.623Z,1012
2022-10-07T09:59:48.814Z,1035
2022-10-07T10:00:54.982Z,1012
2022-10-07T10:02:01.198Z,905
2022-10-07T10:03:07.364Z,984
2022-10-07T10:04:13.463Z,990
2022-10-07T10:05:19.634Z,961
2022-10-07T10:06:25.807Z,939
2022-10-07T10:07:31.980Z,1001
2022-10-07T10:08:38.151Z,1051
2022-10-07T10:09:44.322Z,1051
2022-10-07T10:10:50.497Z,1029
2022-10-07T10:11:56.647Z,978
2022-10-07T10:13:02.825Z,1006
2022-10-07T10:14:08.005Z,1001
2022-10-07T10:15:14.187Z,1029
2022-10-07T10:16:20.354Z,1001
2022-10-07T10:17:26.523Z,990
2022-10-07T10:18:32.689Z,984
2022-10-07T10:19:38.856Z,973
2022-10-07T10:20:45.039Z,950
2022-10-07T10:21:51.198Z,1001
2022-10-07T10:22:57.393Z,961
2022-10-07T10:24:03.542Z,933
2022-10-07T10:25:09.703Z,911
2022-10-07T10:26:15.885Z,894
2022-10-07T10:27:22.035Z,939
2022-10-07T10:28:27.234Z,978
2022-10-07T10:29:33.442Z,945
2022-10-07T10:30:39.584Z,916
2022-10-07T10:31:45.742Z,973
2022-10-07T10:32:52.023Z,984
2022-10-07T10:33:58.087Z,967
2022-10-07T10:35:04.267Z,973
2022-10-07T10:36:10.442Z,961
2022-10-07T10:37:16.579Z,984
2022-10-07T10:38:22.759Z,883
2022-10-07T10:39:28.974Z,922
2022-10-07T10:40:35.086Z,843
2022-10-07T10:41:41.272Z,894
2022-10-07T10:42:46.591Z,967
2022-10-07T10:43:52.622Z,973
2022-10-07T10:44:58.885Z,956
2022-10-07T10:46:05.077Z,984
2022-10-07T10:47:11.282Z,1023
2022-10-07T10:48:17.298Z,1012
2022-10-07T10:49:23.472Z,984
2022-10-07T10:50:29.651Z,1018
2022-10-07T10:51:35.903Z,1006
2022-10-07T10:52:41.977Z,973
2022-10-07T10:53:48.149Z,973
2022-10-07T10:54:54.332Z,928
2022-10-07T10:56:00.488Z,911
2022-10-07T10:57:05.679Z,950
2022-10-07T10:58:11.840Z,928
2022-10-07T10:59:18.011Z,883
2022-10-07T11:00:24.186Z,826
2022-10-07T11:01:30.458Z,950
2022-10-07T11:02:36.533Z,911
2022-10-07T11:03:42.696Z,939
2022-10-07T11:04:48.873Z,922
2022-10-07T11:05:55.029Z,945
2022-10-07T11:07:01.232Z,945
2022-10-07T11:08:07.377Z,939
2022-10-07T11:09:13.542Z,995
2022-10-07T11:10:19.727Z,956
2022-10-07T11:11:25.010Z,984
2022-10-07T11:12:31.066Z,956
2022-10-07T11:13:37.227Z,939
2022-10-07T11:14:43.399Z,922
2022-10-07T11:15:49.583Z,933
2022-10-07T11:16:55.752Z,933
2022-10-07T11:18:01.921Z,905
2022-10-07T11:19:08.072Z,866
2022-10-07T11:20:14.260Z,905
2022-10-07T11:21:20.424Z,911
2022-10-07T11:22:26.697Z,916
2022-10-07T11:23:32.857Z,916
2022-10-07T11:24:38.954Z,916
2022-10-07T11:25:44.113Z,871
2022-10-07T11:26:50.290Z,866
2022-10-07T11:27:56.478Z,877
2022-10-07T11:29:02.634Z,838
2022-10-07T11:30:08.799Z,866
2022-10-07T11:31:13.985Z,511
2022-10-07T11:32:20.159Z,303
2022-10-07T11:33:26.340Z,393
2022-10-07T11:34:32.533Z,815
2022-10-07T11:35:38.664Z,815
2022-10-07T11:36:44.839Z,551
2022-10-07T11:37:51.016Z,483
2022-10-07T11:38:57.176Z,292
2022-10-07T11:40:03.350Z,354
2022-10-07T11:41:09.504Z,326
2022-10-07T11:42:15.683Z,309
2022-10-07T11:43:21.859Z,523
2022-10-07T11:44:28.022Z,871
2022-10-07T11:45:33.206Z,855
2022-10-07T11:46:39.379Z,877
2022-10-07T11:47:45.538Z,855
2022-10-07T11:48:51.717Z,821
2022-10-07T11:49:57.884Z,832
2022-10-07T11:51:04.056Z,855
2022-10-07T11:52:10.225Z,871
2022-10-07T11:53:16.391Z,866
2022-10-07T11:54:22.558Z,849
2022-10-07T11:55:28.736Z,849
2022-10-07T11:56:34.905Z,855
2022-10-07T11:57:41.081Z,871
2022-10-07T11:58:47.235Z,860
2022-10-07T11:59:52.426Z,843
2022-10-07T12:00:58.612Z,860
2022-10-07T12:02:04.773Z,849
2022-10-07T12:03:10.933Z,871
2022-10-07T12:04:17.093Z,855
2022-10-07T12:05:23.317Z,832
2022-10-07T12:06:29.472Z,770
2022-10-07T12:07:35.612Z,753
2022-10-07T12:08:41.790Z,759
2022-10-07T12:09:47.958Z,900
2022-10-07T12:10:54.121Z,900
2022-10-07T12:12:00.298Z,832
2022-10-07T12:13:06.460Z,866
2022-10-07T12:14:11.642Z,748
2022-10-07T12:15:17.808Z,871
2022-10-07T12:16:23.988Z,888
2022-10-07T12:17:30.171Z,849
2022-10-07T12:18:36.323Z,855
2022-10-07T12:19:42.510Z,855
2022-10-07T12:20:48.668Z,849
2022-10-07T12:21:54.847Z,832
2022-10-07T12:23:01.008Z,832
2022-10-07T12:24:07.173Z,838
2022-10-07T12:25:13.348Z,849
2022-10-07T12:26:19.567Z,860
2022-10-07T12:27:25.684Z,860
2022-10-07T12:28:30.859Z,855
2022-10-07T12:29:37.102Z,843
2022-10-07T12:30:43.232Z,877
2022-10-07T12:31:49.380Z,855
2022-10-07T12:32:55.547Z,849
2022-10-07T12:34:01.737Z,849
2022-10-07T12:35:07.969Z,821
2022-10-07T12:36:14.089Z,815
2022-10-07T12:37:20.225Z,781
2022-10-07T12:38:26.400Z,748
2022-10-07T12:39:32.562Z,781
2022-10-07T12:40:38.745Z,708
2022-10-07T12:41:44.897Z,798
2022-10-07T12:42:50.091Z,781
2022-10-07T12:43:56.267Z,776
2022-10-07T12:45:02.420Z,793
2022-10-07T12:46:08.605Z,787
2022-10-07T12:47:14.772Z,765
2022-10-07T12:48:20.995Z,742
2022-10-07T12:49:27.174Z,742
2022-10-07T12:50:33.281Z,765
2022-10-07T12:51:39.455Z,748
2022-10-07T12:52:45.613Z,742
2022-10-07T12:53:51.780Z,720
2022-10-07T12:54:57.945Z,691
2022-10-07T12:56:04.148Z,691
2022-10-07T12:57:09.339Z,663
2022-10-07T12:58:15.476Z,641
2022-10-07T12:59:21.688Z,635
2022-10-07T13:00:27.838Z,613
2022-10-07T13:01:33.991Z,601
2022-10-07T13:02:40.154Z,596
2022-10-07T13:03:46.327Z,607
2022-10-07T13:04:52.508Z,579
2022-10-07T13:05:58.661Z,585
2022-10-07T13:07:04.846Z,562
2022-10-07T13:08:11.013Z,601
2022-10-07T13:09:17.187Z,596
2022-10-07T13:10:23.358Z,573
2022-10-07T13:11:28.550Z,585
2022-10-07T13:12:34.708Z,613
2022-10-07T13:13:40.866Z,635
2022-10-07T13:14:47.050Z,663
2022-10-07T13:15:53.208Z,652
2022-10-07T13:16:59.399Z,641
2022-10-07T13:18:05.544Z,714
2022-10-07T13:19:11.717Z,787
2022-10-07T13:20:17.889Z,680
2022-10-07T13:21:24.050Z,618
2022-10-07T13:22:30.234Z,382
2022-10-07T13:23:36.398Z,315
2022-10-07T13:24:42.562Z,303
2022-10-07T13:25:47.746Z,281
2022-10-07T13:26:53.917Z,275
2022-10-07T13:28:00.109Z,275
2022-10-07T13:29:06.259Z,270
2022-10-07T13:30:12.426Z,264
2022-10-07T13:31:18.605Z,258
2022-10-07T13:32:24.786Z,253
2022-10-07T13:33:30.929Z,253
2022-10-07T13:34:37.116Z,247
2022-10-07T13:35:43.282Z,241
2022-10-07T13:36:49.499Z,236
2022-10-07T13:37:55.627Z,236
2022-10-07T13:39:01.795Z,225
2022-10-07T13:40:06.989Z,225
2022-10-07T13:41:13.146Z,230
2022-10-07T13:42:19.317Z,225
2022-10-07T13:43:25.487Z,225
2022-10-07T13:44:31.654Z,219
2022-10-07T13:45:37.817Z,213
2022-10-07T13:46:43.991Z,213
2022-10-07T13:47:50.160Z,213
2022-10-07T13:48:56.342Z,213
2022-10-07T13:50:02.503Z,208
2022-10-07T13:51:08.674Z,213
2022-10-07T13:52:14.864Z,208
2022-10-07T13:53:21.031Z,208
2022-10-07T13:54:26.209Z,208
2022-10-07T13:55:32.355Z,208
2022-10-07T13:56:38.538Z,202
2022-10-07T13:57:44.718Z,208
2022-10-07T13:58:50.866Z,208
2022-10-07T13:59:57.040Z,213
2022-10-07T14:01:03.208Z,213
2022-10-07T14:02:09.387Z,208
2022-10-07T14:04:21.761Z,202
2022-10-07T14:05:27.932Z,202
2022-10-07T14:06:34.062Z,191
2022-10-07T14:07:40.214Z,185
2022-10-07T14:08:45.425Z,196
2022-10-07T14:09:51.608Z,180
2022-10-07T14:10:57.770Z,191
2022-10-07T14:12:03.925Z,185
2022-10-07T14:13:10.095Z,191
2022-10-07T14:14:16.272Z,196
2022-10-07T14:15:22.469Z,191
2022-10-07T14:16:28.605Z,196
2022-10-07T14:17:34.771Z,202
2022-10-07T14:18:40.941Z,202
2022-10-07T14:19:47.101Z,202
2022-10-07T14:20:53.266Z,202
2022-10-07T14:21:59.455Z,202
2022-10-07T14:23:04.636Z,196
2022-10-07T14:24:10.799Z,196
2022-10-07T14:25:17.028Z,185
2022-10-07T14:26:23.153Z,185
2022-10-07T14:27:29.303Z,180
2022-10-07T14:28:35.486Z,180
2022-10-07T14:29:41.657Z,174
2022-10-07T14:30:47.808Z,168
2022-10-07T14:31:53.981Z,174
2022-10-07T14:33:00.157Z,180
2022-10-07T14:34:06.350Z,185
2022-10-07T14:35:12.559Z,191
2022-10-07T14:36:18.674Z,185
2022-10-07T14:37:23.870Z,185
2022-10-07T14:38:30.032Z,185
2022-10-07T14:39:36.184Z,185
2022-10-07T14:40:42.349Z,185
2022-10-07T14:41:48.543Z,185
2022-10-07T14:42:54.693Z,174
2022-10-07T14:44:00.864Z,163
2022-10-07T14:45:07.026Z,135
2022-10-07T14:46:13.228Z,140
2022-10-07T14:47:19.411Z,163
2022-10-07T14:48:25.543Z,157
2022-10-07T14:49:31.719Z,129
2022-10-07T14:50:37.883Z,129
2022-10-07T14:51:43.069Z,123
2022-10-07T14:52:49.223Z,123
2022-10-07T14:53:55.435Z,123
2022-10-07T14:55:01.601Z,118
2022-10-07T14:56:07.753Z,118
2022-10-07T14:57:13.924Z,118
2022-10-07T14:58:20.082Z,112
2022-10-07T14:59:26.263Z,112
2022-10-07T15:00:32.428Z,106
2022-10-07T15:01:38.618Z,106
2022-10-07T15:02:44.762Z,106
2022-10-07T15:03:50.941Z,106
2022-10-07T15:04:57.102Z,106
2022-10-07T15:06:02.297Z,106
2022-10-07T15:07:08.455Z,106
2022-10-07T15:08:14.663Z,101
2022-10-07T15:09:20.800Z,106
2022-10-07T15:10:26.957Z,106
2022-10-07T15:11:33.129Z,106
2022-10-07T15:12:38.488Z,101
2022-10-07T15:13:44.500Z,101
2022-10-07T15:14:50.665Z,101
2022-10-07T15:15:56.829Z,101
2022-10-07T15:17:03.001Z,101
2022-10-07T15:18:09.166Z,101
2022-10-07T15:19:15.329Z,101
2022-10-07T15:20:21.549Z,101
2022-10-07T15:21:27.688Z,101
2022-10-07T15:22:33.850Z,101
2022-10-07T15:23:40.020Z,101
2022-10-07T15:24:46.177Z,101
2022-10-07T15:25:52.358Z,101
2022-10-07T15:26:57.548Z,101
2022-10-07T15:28:03.710Z,95
2022-10-07T15:29:09.886Z,95
2022-10-07T15:30:16.048Z,95
2022-10-07T15:31:22.225Z,95
2022-10-07T15:32:28.398Z,95
2022-10-07T15:33:34.571Z,95
2022-10-07T15:34:40.732Z,95
2022-10-07T15:35:46.906Z,95
2022-10-07T15:36:53.062Z,90
2022-10-07T15:37:59.234Z,90
2022-10-07T15:39:05.405Z,90
2022-10-07T15:40:11.584Z,84
2022-10-07T15:41:16.761Z,84